AirNav   Duncan Aviation - Near you to keep you flying
 
 1006 users online  

50F Bourland Field Airport
Fort Worth, Texas, USA

GOING TO FORT WORTH?


FAA INFORMATION EFFECTIVE 26 JANUARY 2023

Location

FAA Identifier: 50F
Lat/Long: 32-34-54.6000N 097-35-26.8000W
32-34.910000N 097-35.446667W
32.5818333,-97.5907778
(estimated)
Elevation: 873.2 ft. / 266.2 m (surveyed)
Variation: 06E (2000)
From city: 17 miles SW of FORT WORTH, TX
Time zone: UTC -6 (UTC -5 during Daylight Saving Time)
Zip code: 76126

Airport Operations

Airport use: Open to the public
Activation date: 09/1981
Control tower: no
ARTCC: FORT WORTH CENTER
FSS: FORT WORTH FLIGHT SERVICE STATION
NOTAMs facility: FTW (NOTAM-D service available)
Attendance: MON-SAT DAYLIGHT HOURS
FOR SVCS AFT HRS CALL 817-752-4701.
Wind indicator: lighted
Segmented circle: yes
Lights: ACTVT MIRL RWY 17/35 - CTAF. VASI RWYS 17 & 35 OPR CONSLY.
Beacon: white-green (lighted land airport)
Operates sunset to sunrise.

Airport Communications

CTAF/UNICOM: 123.0
REGIONAL APPROACH: 135.975
REGIONAL DEPARTURE: 135.975
DODJE STAR: 125.2 125.9
GARLAND DP: 135.975
LIKES STAR: 125.8 ;SOUTH 135.975 ;NORTH
MOTZA STAR: 118.1 ;SOUTH 125.8 ;NORTH
REEKO STAR: 125.2
SANGR STAR: 124.3
SASIE STAR: 124.3
SLUGG STAR: 125.8 ;SOUTH 135.975 ;NORTH
WESAT STAR: 118.1 ;SOUTH 125.8 ;NORTH
WX AWOS-3PT at FWS (14 nm E): 120.025 (817-426-4172)
WX AWOS-3PT at GDJ (14 nm SW): 118.925 (817-573-7514)
WX AWOS-3 at CPT (16 nm SE): 119.525 (817-641-4135)
WX ASOS at FTW (18 nm NE): PHONE 817-740-3346

Nearby radio navigation aids

VOR radial/distance  VOR name  Freq  Var
MQPr104/22.3MILLSAP VORTAC117.7009E
FUZr222/27.8RANGER VORTAC115.7006E
TTTr232/32.7MAVERICK VOR/DME113.1006E
CVEr236/39.3COWBOY VOR/DME116.2006E

Airport Services

Fuel available: 100LL JET-A
100LL:FUEL SELF SERVE.
Parking: hangars and tiedowns

Runway Information

Runway 17/35

Dimensions: 4049 x 60 ft. / 1234 x 18 m
Surface: asphalt, in good condition
Runway edge lights: medium intensity
RUNWAY 17  RUNWAY 35
Latitude: 32-35.240523N32-34.580380N
Longitude: 097-35.505517W097-35.388090W
Elevation: 873.1 ft.836.7 ft.
Traffic pattern: leftleft
Runway heading: 165 magnetic, 171 true345 magnetic, 351 true
Displaced threshold: 392 ft.215 ft.
Markings: nonprecision, in good conditionnonprecision, in good condition
Visual slope indicator: 2-box VASI on left (3.00 degrees glide path)2-box VASI on left (3.00 degrees glide path)
Touchdown point: yes, no lightsyes, no lights
Obstructions: 19 ft. road, 201 ft. from runway, 250 ft. left and right of centerline, 1:1 slope to clear
15 FT RD 0 FT DSTC 126 FT R.
40 ft. trees, 201 ft. from runway, 250 ft. left and right of centerline, 1:1 slope to clear
40 FT TREES 0-199 FT DSTC 60 FT R & 250 L/R.

Airport Ownership and Management from official FAA records

Ownership: Privately-owned
Owner: BOURLAND FIELD ESTATES HOA INC
101 CONSETELLATION DR
CRESSON, TX 76035
Phone 817-396-4554
FBO PHONE.
Manager: MARY JANE BUTT
101 CONSTELLATION DR
CRESSON, TX 76035
Phone 817-752-4701

Airport Operational Statistics

Aircraft based on the field: 118
Single engine airplanes: 100
Multi engine airplanes: 15
Jet airplanes: 1
Helicopters: 2
    
Aircraft operations: avg 60/day *
90% local general aviation
10% transient general aviation
* for 12-month period ending 24 September 2022

Additional Remarks

FOR CD CTC REGIONAL APCH AT 972-615-2799.
DEER ON & INVOF RWY.
RWY HOLD SHORT LINES NSTD 25 FT FM RWY EDGE.

Instrument Procedures

NOTE: All procedures below are presented as PDF files. If you need a reader for these files, you should download the free Adobe Reader.

NOT FOR NAVIGATION. Please procure official charts for flight.
FAA instrument procedures published for use from 26 January 2023 at 0901Z to 23 February 2023 at 0900z.

 
STARs - Standard Terminal Arrivals
LIKES THREE (RNAV)   download
MOTZA ONE   2 pages: [1] [2]
REEKO THREE (RNAV)   download
SASIE SEVEN **NEW**   2 pages: [1] [2]
TRUUK TWO (RNAV)   download
WESAT TWO (RNAV)   download
 
IAPs - Instrument Approach Procedures
RNAV (GPS) RWY 17 **CHANGED**   download
RNAV (GPS) RWY 35 **CHANGED**   download
 
Departure Procedures
GARLAND FOUR **NEW**   2 pages: [1] [2]
KINGDOM THREE   2 pages: [1] [2]
KUSSO ONE (RNAV)   2 pages: [1] [2]
SWABR ONE (RNAV)   2 pages: [1] [2]
NOTE: Special Take-Off Minimums/Departure Procedures apply   download (308KB)

Other nearby airports with instrument procedures:

KWEA - Parker County Airport (11 nm NW)
KNFW - Fort Worth Naval Air Station JRB (Carswell Field) Airport (14 nm NE)
KFWS - Fort Worth Spinks Airport (14 nm E)
KGDJ - Granbury Regional Airport (14 nm SW)
KCPT - Cleburne Regional Airport (16 nm SE)
KFTW - Fort Worth Meacham International Airport (18 nm NE)
 
Loc | Ops | Rwys | IFR | FBO | Links
Com | Nav | Svcs | Stats | Notes

City of Fort Worth
 
Area around 50F (Bourland Field Airport)
 
Road maps at: MapQuest Bing Google
 
Aerial photo
WARNING: Photo may not be current or correct
Aerial photo of 50F (Bourland Field Airport)
Photo by Paul Bristow
Photo taken 01-Jun-2008

Do you have a better or more recent aerial photo of Bourland Field Airport that you would like to share? If so, please send us your photo.

 
Sectional chart

 
Airport distance calculator
Flying to Bourland Field Airport? Find the distance to fly.

From to 50F

Sunrise and sunset
Times for 27-Jan-2023
 Local
(UTC-6)
 Zulu
(UTC)
Morning civil twilight07:0313:03
Sunrise07:2913:29
Sunset17:5723:57
Evening civil twilight18:2300:23

Current date and time
Zulu (UTC)  28-Jan-2023 00:59:28
Local (UTC-6)  27-Jan-2023 18:59:28
 
METAR
KNFW 
13nm NE 
280052Z 17013KT 10SM FEW250 12/M03 A3011 RMK AO2 SLP180 T01171028 VISNO S $
KGDJ 
14nm SW 
AWOS-3 118.925 817-573-7514
280055Z AUTO 16008KT 10SM CLR 12/M01 A3013 RMK AO2 T01201014
KFWS 
15nm E 
280050Z 15011G22KT 10SM CLR 11/M02 A3015
KCPT 
16nm SE 
280055Z AUTO 16011G16KT 10SM CLR 10/M02 A3015 RMK A01
KFTW 
19nm NE 
280053Z 16012KT 10SM CLR 12/M02 A3011 RMK AO2 SLP197 T01171017
KGKY 
25nm E 
280053Z AUTO 16010KT 10SM CLR 12/M01 A3014 RMK AO2 SLP206 T01221011
TAF
KNFW 
13nm NE 
2723/2823 21012G18KT 9999 FEW250 QNH3000INS FM281000 18010KT 9999 BKN015 QNH3000INS TEMPO 2814/2819 4800 BR OVC006 FM281900 19014KT 9999 OVC012 QNH2988INS AUTOMATED SENSOR METWATCH 2805 TIL 2812 T16/2723Z T07/2813Z FN20048
KFTW 
19nm NE 
272058Z 2721/2818 21016KT P6SM FEW250 FM281100 18014KT P6SM BKN015 FM281500 19014KT 5SM BR OVC006
NOTAMs
Click for the latest NOTAMs
NOTAMs are issued by the DoD/FAA and will open in a separate window not controlled by AirNav.

 

 
 

FBO, Fuel Providers, and Aircraft Ground Support

  
 Business Name 
 
 Contact 
 
 Services / Description 
 
Fuel Prices
 
Comments
  
Bourland Field 817-396-4554
no information available

If you are affiliated with Bourland Field and would like to show here your services, contact info, web link, logo, and more, click here
100LL Jet A
SS $5.41 $5.53 
 Updated 19-Jan-2023
 
   1 read write
SS=Self service
Update Fuel Prices
 

Would you like to see your business listed on this page?

 If your business provides an interesting product or service to pilots, flight crews, aircraft, or users of the Bourland Field Airport, you should consider listing it here.  To start the listing process, click on the button below
 
Add a business
 

Other Pages about Bourland Field Airport

www.bourlandestates.com/bourlandfield.htm
 
Update a link
 
Copyright © AirNav, LLC. All rights reserved. Privacy Policy  Contact